Time;durP1;ratioP1;P1;durP2;ratioP2;P2;SDS_P1;SDS_P2;PMS_P1;PMS_P2;Temp;Humidity;BMP_temperature;BMP_pressure;BME280_temperature;BME280_humidity;BME280_pressure;Samples;Min_cycle;Max_cycle;Signal;HPM_P1;HPM_P2
2024/01/19 00:02:53;;;;;;;2.65;0.80;;;;;;;;;;5043144;28;20064;-74
2024/01/19 00:06:33;;;;;;;2.45;0.88;;;;;;;;;;5047714;28;20096;-73
2024/01/19 00:10:14;;;;;;;1.92;0.98;;;;;;;;;;5045815;28;20079;-72
2024/01/19 00:13:54;;;;;;;1.38;0.73;;;;;;;;;;5046040;28;20434;-72
2024/01/19 00:17:35;;;;;;;1.02;0.70;;;;;;;;;;5048299;28;20052;-75
2024/01/19 00:21:17;;;;;;;3.58;0.93;;;;;;;;;;5044220;28;20108;-73
2024/01/19 00:24:58;;;;;;;1.80;0.70;;;;;;;;;;5044615;28;20547;-73
2024/01/19 00:28:39;;;;;;;1.67;0.80;;;;;;;;;;5042743;28;20376;-74
2024/01/19 00:32:19;;;;;;;1.50;0.80;;;;;;;;;;5043801;28;20426;-73
2024/01/19 00:35:59;;;;;;;1.35;0.60;;;;;;;;;;5047847;28;20041;-73
2024/01/19 00:39:40;;;;;;;1.75;0.60;;;;;;;;;;5045963;28;20057;-72
2024/01/19 00:43:20;;;;;;;1.75;0.73;;;;;;;;;;5050102;28;20114;-72
2024/01/19 00:47:00;;;;;;;1.10;0.90;;;;;;;;;;5049228;28;20092;-72
2024/01/19 00:50:41;;;;;;;1.13;0.60;;;;;;;;;;5049717;28;20081;-71
2024/01/19 00:54:21;;;;;;;1.15;0.75;;;;;;;;;;5045161;28;20057;-72
2024/01/19 00:58:02;;;;;;;0.82;0.50;;;;;;;;;;5048796;28;20067;-71
2024/01/19 01:01:44;;;;;;;1.45;0.80;;;;;;;;;;5044021;28;20053;-74
2024/01/19 01:05:26;;;;;;;0.88;0.70;;;;;;;;;;5044369;28;20099;-72
2024/01/19 01:09:07;;;;;;;1.52;0.70;;;;;;;;;;5044662;28;20059;-73
2024/01/19 01:12:47;;;;;;;3.25;1.00;;;;;;;;;;5044059;28;20441;-73
2024/01/19 01:16:29;;;;;;;1.60;1.00;;;;;;;;;;5043524;28;20049;-73
2024/01/19 01:20:10;;;;;;;2.08;0.95;;;;;;;;;;5045950;28;20036;-71
2024/01/19 01:23:48;;;;;;;3.00;1.13;;;;;;;;;;5044774;28;20052;-72
2024/01/19 01:27:28;;;;;;;1.02;0.70;;;;;;;;;;5046929;28;20041;-72
2024/01/19 01:31:09;;;;;;;0.85;0.70;;;;;;;;;;5048433;28;20049;-71
2024/01/19 01:34:49;;;;;;;2.45;0.90;;;;;;;;;;5041604;28;20119;-72
2024/01/19 01:38:30;;;;;;;2.13;0.70;;;;;;;;;;5046316;28;20120;-71
2024/01/19 01:42:11;;;;;;;2.47;1.00;;;;;;;;;;5049115;28;20048;-71
2024/01/19 01:45:52;;;;;;;1.80;1.10;;;;;;;;;;5043134;28;20468;-73
2024/01/19 01:49:32;;;;;;;1.80;0.77;;;;;;;;;;5043309;28;20134;-72
2024/01/19 01:53:12;;;;;;;1.67;1.00;;;;;;;;;;5045606;28;20045;-71
2024/01/19 01:56:53;;;;;;;6.20;0.80;;;;;;;;;;5045782;28;20087;-73
2024/01/19 02:00:33;;;;;;;1.58;0.88;;;;;;;;;;5049395;28;20052;-72
2024/01/19 02:04:15;;;;;;;2.28;1.10;;;;;;;;;;5043661;28;20060;-72
2024/01/19 02:07:55;;;;;;;3.20;1.27;;;;;;;;;;5047283;28;20073;-72
2024/01/19 02:11:35;;;;;;;3.13;1.00;;;;;;;;;;5047148;28;20080;-72
2024/01/19 02:15:16;;;;;;;2.17;1.00;;;;;;;;;;5046902;28;20041;-71
2024/01/19 02:18:56;;;;;;;2.63;1.10;;;;;;;;;;5048040;28;20048;-71
2024/01/19 02:22:36;;;;;;;3.92;0.90;;;;;;;;;;5055717;28;20037;-72
2024/01/19 02:26:17;;;;;;;6.45;1.27;;;;;;;;;;5054040;28;20063;-72
2024/01/19 02:29:58;;;;;;;5.03;1.08;;;;;;;;;;5050195;28;20390;-74
2024/01/19 02:33:39;;;;;;;2.83;1.23;;;;;;;;;;5054937;28;20053;-72
2024/01/19 02:37:19;;;;;;;1.08;0.77;;;;;;;;;;5049525;28;20045;-73
2024/01/19 02:40:59;;;;;;;1.45;0.80;;;;;;;;;;5041366;28;20048;-71
2024/01/19 02:44:40;;;;;;;1.80;1.00;;;;;;;;;;5045249;28;20052;-70
2024/01/19 02:48:20;;;;;;;1.00;0.82;;;;;;;;;;5048042;28;20037;-72
2024/01/19 02:52:02;;;;;;;1.38;1.02;;;;;;;;;;5048524;28;20107;-71
2024/01/19 02:55:42;;;;;;;2.63;0.80;;;;;;;;;;5040807;28;20044;-70
2024/01/19 02:59:39;;;;;;;1.90;0.80;;;;;;;;;;5044122;28;20088;-73
2024/01/19 03:03:19;;;;;;;1.70;0.95;;;;;;;;;;5050690;28;20144;-72
2024/01/19 03:07:00;;;;;;;1.63;0.88;;;;;;;;;;5045883;28;20124;-71
2024/01/19 03:10:40;;;;;;;4.18;0.82;;;;;;;;;;5047964;28;20458;-72
2024/01/19 03:14:20;;;;;;;1.95;1.08;;;;;;;;;;5045625;28;20090;-72
2024/01/19 03:18:01;;;;;;;4.53;1.10;;;;;;;;;;5045696;28;20056;-71
2024/01/19 03:21:42;;;;;;;2.97;1.35;;;;;;;;;;5048337;28;20444;-72
2024/01/19 03:25:23;;;;;;;2.47;1.20;;;;;;;;;;5042781;28;20041;-71
2024/01/19 03:29:03;;;;;;;1.90;1.20;;;;;;;;;;5047665;28;20111;-72
2024/01/19 03:32:45;;;;;;;4.53;1.60;;;;;;;;;;5042329;28;20170;-71
2024/01/19 03:36:25;;;;;;;4.72;1.15;;;;;;;;;;5050218;28;20110;-72
2024/01/19 03:40:06;;;;;;;3.72;1.55;;;;;;;;;;5046890;28;20040;-72
2024/01/19 03:43:46;;;;;;;2.42;1.48;;;;;;;;;;5044047;28;20124;-73
2024/01/19 03:47:26;;;;;;;3.50;1.52;;;;;;;;;;5044875;28;20072;-71
2024/01/19 03:51:06;;;;;;;3.35;1.65;;;;;;;;;;5046552;28;20133;-71
2024/01/19 03:54:47;;;;;;;3.42;1.58;;;;;;;;;;5045362;28;20064;-72
2024/01/19 03:58:27;;;;;;;4.90;1.75;;;;;;;;;;5043631;28;20045;-72
2024/01/19 04:02:07;;;;;;;2.75;1.55;;;;;;;;;;5048769;28;20122;-70
2024/01/19 04:05:48;;;;;;;3.85;1.77;;;;;;;;;;5046478;28;20463;-72
2024/01/19 04:09:30;;;;;;;3.55;1.75;;;;;;;;;;5048233;28;20052;-71
2024/01/19 04:13:10;;;;;;;4.25;1.90;;;;;;;;;;5045696;28;20477;-71
2024/01/19 04:16:50;;;;;;;2.60;1.52;;;;;;;;;;5042485;28;20049;-70
2024/01/19 04:20:31;;;;;;;4.43;1.80;;;;;;;;;;5042047;28;20075;-70
2024/01/19 04:24:11;;;;;;;4.18;1.90;;;;;;;;;;5047932;28;20436;-73
2024/01/19 04:27:54;;;;;;;3.67;1.83;;;;;;;;;;5042061;28;20249;-72
2024/01/19 04:31:34;;;;;;;4.10;1.80;;;;;;;;;;5042154;28;20055;-72
2024/01/19 04:35:15;;;;;;;8.15;2.00;;;;;;;;;;5044004;28;20570;-72
2024/01/19 04:38:55;;;;;;;4.70;2.10;;;;;;;;;;5037238;28;20041;-72
2024/01/19 04:42:35;;;;;;;7.47;1.80;;;;;;;;;;5050540;28;20041;-72
2024/01/19 04:46:16;;;;;;;3.80;1.63;;;;;;;;;;5045297;28;20045;-70
2024/01/19 04:49:56;;;;;;;6.57;2.70;;;;;;;;;;5046478;28;20057;-71
2024/01/19 04:53:36;;;;;;;2.65;1.42;;;;;;;;;;5045433;28;20052;-73
2024/01/19 04:57:17;;;;;;;3.42;1.63;;;;;;;;;;5039656;28;20126;-71
2024/01/19 05:00:57;;;;;;;4.30;1.73;;;;;;;;;;5047384;28;20085;-72
2024/01/19 05:04:38;;;;;;;5.72;1.80;;;;;;;;;;5043642;28;20056;-71
2024/01/19 05:08:18;;;;;;;3.00;1.50;;;;;;;;;;5043069;28;20037;-69
2024/01/19 05:11:58;;;;;;;5.97;1.45;;;;;;;;;;5047661;28;20738;-73
2024/01/19 05:15:39;;;;;;;3.65;1.50;;;;;;;;;;5044132;28;20067;-71
2024/01/19 05:19:20;;;;;;;3.58;1.30;;;;;;;;;;5046042;28;20210;-72
2024/01/19 05:23:00;;;;;;;6.78;1.67;;;;;;;;;;5043439;28;20049;-72
2024/01/19 05:26:44;;;;;;;4.25;1.17;;;;;;;;;;5045635;28;20055;-72
2024/01/19 05:30:25;;;;;;;3.55;1.65;;;;;;;;;;5047828;28;20056;-71
2024/01/19 05:34:05;;;;;;;2.28;1.13;;;;;;;;;;5047448;28;20102;-73
2024/01/19 05:37:45;;;;;;;1.73;1.05;;;;;;;;;;5051212;28;20057;-72
2024/01/19 05:41:26;;;;;;;2.78;1.40;;;;;;;;;;5049111;28;20428;-73
2024/01/19 05:45:06;;;;;;;4.88;1.50;;;;;;;;;;5053816;28;20040;-72
2024/01/19 05:48:46;;;;;;;2.03;1.10;;;;;;;;;;5051674;28;20052;-71
2024/01/19 05:52:27;;;;;;;2.65;1.15;;;;;;;;;;5052160;28;20481;-72
2024/01/19 05:56:09;;;;;;;2.42;1.40;;;;;;;;;;5050246;28;20080;-71
2024/01/19 05:59:49;;;;;;;5.78;2.10;;;;;;;;;;5048804;28;20053;-71
2024/01/19 06:03:29;;;;;;;3.67;1.67;;;;;;;;;;5048050;28;20053;-73
2024/01/19 06:07:10;;;;;;;8.25;1.70;;;;;;;;;;5051984;28;20212;-70
2024/01/19 06:10:50;;;;;;;5.40;1.85;;;;;;;;;;5051379;28;20106;-72
2024/01/19 06:14:31;;;;;;;6.65;1.80;;;;;;;;;;5046329;28;20511;-71
2024/01/19 06:18:11;;;;;;;6.97;2.28;;;;;;;;;;5049787;28;20210;-73
2024/01/19 06:21:54;;;;;;;5.70;1.77;;;;;;;;;;5046945;28;20116;-73
2024/01/19 06:25:34;;;;;;;3.92;1.75;;;;;;;;;;5048562;28;20101;-72
2024/01/19 06:29:14;;;;;;;4.13;1.55;;;;;;;;;;5044693;28;20045;-71
2024/01/19 06:32:55;;;;;;;5.45;1.80;;;;;;;;;;5047403;28;20056;-72
2024/01/19 06:36:35;;;;;;;6.80;2.13;;;;;;;;;;5054127;28;20072;-72
2024/01/19 06:40:16;;;;;;;3.97;2.00;;;;;;;;;;5043429;28;20060;-73
2024/01/19 06:43:56;;;;;;;4.03;1.83;;;;;;;;;;5046834;28;20088;-72
2024/01/19 06:47:37;;;;;;;3.67;2.05;;;;;;;;;;5042886;28;20558;-69
2024/01/19 06:51:23;;;;;;;4.18;2.10;;;;;;;;;;5047724;28;20044;-72
2024/01/19 06:55:03;;;;;;;9.10;2.08;;;;;;;;;;5048559;28;20032;-72
2024/01/19 06:58:43;;;;;;;4.45;2.10;;;;;;;;;;5046424;28;20084;-73
2024/01/19 07:02:23;;;;;;;6.68;2.08;;;;;;;;;;5046166;28;20185;-72
2024/01/19 07:06:05;;;;;;;5.05;2.15;;;;;;;;;;5040702;28;20060;-70
2024/01/19 07:09:45;;;;;;;5.95;2.00;;;;;;;;;;5040672;28;20052;-71
2024/01/19 07:13:25;;;;;;;5.90;2.38;;;;;;;;;;5045692;28;20153;-71
2024/01/19 07:17:06;;;;;;;5.35;2.22;;;;;;;;;;5042325;28;20033;-71
2024/01/19 07:20:46;;;;;;;8.93;2.50;;;;;;;;;;5046364;28;20044;-75
2024/01/19 07:24:32;;;;;;;5.63;1.80;;;;;;;;;;5051072;28;20041;-75
2024/01/19 07:28:07;;;;;;;4.28;1.90;;;;;;;;;;5050779;28;20424;-77
2024/01/19 07:31:47;;;;;;;5.53;1.77;;;;;;;;;;5050028;28;20249;-74
2024/01/19 07:35:28;;;;;;;4.75;1.83;;;;;;;;;;5051433;28;20049;-75
2024/01/19 07:39:08;;;;;;;5.53;1.42;;;;;;;;;;5046615;28;20072;-73
2024/01/19 07:42:48;;;;;;;5.57;1.67;;;;;;;;;;5043670;28;20312;-69
2024/01/19 07:46:30;;;;;;;6.85;1.80;;;;;;;;;;5033239;28;20041;-73
2024/01/19 07:50:10;;;;;;;6.63;2.10;;;;;;;;;;5044989;28;20037;-77
2024/01/19 07:53:51;;;;;;;9.13;2.25;;;;;;;;;;5046331;28;20048;-74
2024/01/19 07:57:33;;;;;;;6.03;1.95;;;;;;;;;;5041948;28;20489;-72
2024/01/19 08:01:13;;;;;;;6.60;1.88;;;;;;;;;;5046114;28;20056;-73
2024/01/19 08:04:55;;;;;;;6.13;1.88;;;;;;;;;;5043962;28;20551;-73
2024/01/19 08:08:36;;;;;;;6.35;1.88;;;;;;;;;;5050256;28;20071;-73
2024/01/19 08:12:16;;;;;;;7.53;1.95;;;;;;;;;;5048634;28;20060;-76
2024/01/19 08:15:57;;;;;;;8.20;2.80;;;;;;;;;;5045352;28;20053;-76
2024/01/19 08:19:38;;;;;;;13.30;2.10;;;;;;;;;;5048299;28;20436;-73
2024/01/19 08:23:18;;;;;;;8.35;3.13;;;;;;;;;;5050200;28;20052;-73
2024/01/19 08:26:58;;;;;;;4.97;2.10;;;;;;;;;;5048498;28;20055;-74
2024/01/19 08:30:39;;;;;;;8.90;1.50;;;;;;;;;;5046976;28;20045;-72
2024/01/19 08:34:19;;;;;;;9.75;1.50;;;;;;;;;;5049012;28;20555;-72
2024/01/19 08:37:59;;;;;;;9.90;1.10;;;;;;;;;;5053718;28;20064;-72
2024/01/19 08:41:40;;;;;;;10.38;1.70;;;;;;;;;;5044987;28;20037;-73
2024/01/19 08:45:23;;;;;;;8.95;1.58;;;;;;;;;;5042045;28;20088;-73
2024/01/19 08:49:05;;;;;;;8.40;1.27;;;;;;;;;;5044281;28;20053;-73
2024/01/19 08:52:45;;;;;;;3.97;1.23;;;;;;;;;;5048449;28;20432;-72
2024/01/19 08:56:29;;;;;;;6.47;1.20;;;;;;;;;;5045509;28;20132;-74
2024/01/19 09:00:10;;;;;;;8.68;1.30;;;;;;;;;;5045929;28;20536;-75
2024/01/19 09:03:51;;;;;;;6.18;1.15;;;;;;;;;;5043786;28;20107;-74
2024/01/19 09:07:31;;;;;;;6.80;1.85;;;;;;;;;;5049813;28;20041;-71
2024/01/19 09:11:13;;;;;;;6.88;1.13;;;;;;;;;;5048300;28;20055;-72
2024/01/19 09:14:54;;;;;;;8.10;1.48;;;;;;;;;;5046759;28;20057;-74
2024/01/19 09:18:34;;;;;;;6.78;1.40;;;;;;;;;;5055406;28;20049;-74
2024/01/19 09:22:14;;;;;;;5.25;1.13;;;;;;;;;;5049826;28;20475;-73
2024/01/19 09:25:55;;;;;;;6.60;1.15;;;;;;;;;;5053084;28;20091;-72
2024/01/19 09:29:36;;;;;;;4.68;1.10;;;;;;;;;;5057511;28;20053;-75
2024/01/19 09:33:16;;;;;;;3.80;1.30;;;;;;;;;;5044924;28;20053;-74
2024/01/19 09:36:58;;;;;;;10.15;1.50;;;;;;;;;;5058762;28;20059;-75
2024/01/19 09:40:40;;;;;;;6.80;1.40;;;;;;;;;;5054897;28;20042;-74
2024/01/19 09:44:20;;;;;;;5.20;1.65;;;;;;;;;;5048335;28;20049;-76
2024/01/19 09:47:43;;;;;;;5.07;1.30;;;;;;;;;;5060596;28;20041;-75
2024/01/19 09:51:23;;;;;;;14.07;2.03;;;;;;;;;;5052665;28;20311;-74
2024/01/19 09:55:04;;;;;;;9.57;1.30;;;;;;;;;;5046973;28;20057;-74
2024/01/19 09:58:45;;;;;;;9.10;1.65;;;;;;;;;;5050415;28;20147;-72
2024/01/19 10:02:26;;;;;;;10.90;1.83;;;;;;;;;;5053191;28;20662;-75
2024/01/19 10:06:06;;;;;;;6.93;1.50;;;;;;;;;;5051539;28;20095;-75
2024/01/19 10:09:49;;;;;;;11.88;1.80;;;;;;;;;;5049253;28;20864;-75
2024/01/19 10:13:29;;;;;;;10.95;1.58;;;;;;;;;;5050592;28;20041;-75
2024/01/19 10:17:12;;;;;;;7.65;1.23;;;;;;;;;;5049507;28;20040;-75
2024/01/19 10:20:53;;;;;;;8.10;1.70;;;;;;;;;;5044020;28;20049;-72
2024/01/19 10:24:31;;;;;;;11.40;1.55;;;;;;;;;;5044588;28;20649;-73
2024/01/19 10:28:19;;;;;;;7.25;1.85;;;;;;;;;;5047756;28;20485;-73
2024/01/19 10:32:02;;;;;;;11.75;1.90;;;;;;;;;;5051122;28;20045;-71
2024/01/19 10:35:51;;;;;;;16.27;3.03;;;;;;;;;;5047048;28;20045;-72
2024/01/19 10:39:17;;;;;;;12.18;2.20;;;;;;;;;;5046754;28;20052;-71
2024/01/19 10:42:59;;;;;;;10.77;2.47;;;;;;;;;;5048324;28;20530;-72
2024/01/19 10:46:39;;;;;;;13.07;1.73;;;;;;;;;;5047868;28;20280;-73
2024/01/19 10:50:24;;;;;;;9.00;2.13;;;;;;;;;;5048899;28;20372;-72
2024/01/19 10:54:02;;;;;;;12.82;1.83;;;;;;;;;;5052481;28;20045;-71
2024/01/19 10:57:43;;;;;;;5.57;2.50;;;;;;;;;;5048750;28;20103;-72
2024/01/19 11:01:33;;;;;;;14.15;1.88;;;;;;;;;;5052011;28;20052;-70
2024/01/19 11:05:13;;;;;;;20.40;1.95;;;;;;;;;;5042298;28;20068;-70
2024/01/19 11:08:54;;;;;;;12.75;2.25;;;;;;;;;;5050165;28;20112;-69
2024/01/19 11:12:35;;;;;;;11.95;2.30;;;;;;;;;;5039793;28;20049;-71
2024/01/19 11:16:17;;;;;;;6.78;1.60;;;;;;;;;;5049373;28;20049;-69
2024/01/19 11:19:59;;;;;;;10.38;2.80;;;;;;;;;;5046559;28;20049;-71
2024/01/19 11:23:40;;;;;;;13.98;1.88;;;;;;;;;;5046333;28;20063;-72
2024/01/19 11:27:22;;;;;;;10.38;1.77;;;;;;;;;;5050007;28;20045;-72
2024/01/19 11:31:22;;;;;;;10.30;1.88;;;;;;;;;;5048893;28;20528;-72
2024/01/19 11:35:04;;;;;;;12.45;2.22;;;;;;;;;;5047736;28;20470;-72
2024/01/19 11:39:05;;;;;;;13.38;2.00;;;;;;;;;;5048353;28;20110;-74
2024/01/19 11:42:33;;;;;;;8.75;2.40;;;;;;;;;;5050391;28;20333;-73
2024/01/19 11:46:19;;;;;;;9.13;1.75;;;;;;;;;;5049335;28;20044;-72
2024/01/19 11:49:33;;;;;;;9.80;1.48;;;;;;;;;;5044287;28;20045;-74
2024/01/19 11:52:55;;;;;;;9.27;1.65;;;;;;;;;;5051037;28;20049;-73
2024/01/19 11:56:42;;;;;;;14.40;2.28;;;;;;;;;;5040824;28;20067;-74
2024/01/19 12:00:02;;;;;;;;;;;;;;;;;;5046723;28;20409;-73
2024/01/19 12:03:43;;;;;;;9.48;1.63;;;;;;;;;;5048706;28;19927;-74
2024/01/19 12:07:23;;;;;;;3.72;1.42;;;;;;;;;;5046617;28;20187;-76
2024/01/19 12:11:03;;;;;;;5.35;1.55;;;;;;;;;;5051284;28;20053;-74
2024/01/19 12:14:44;;;;;;;11.07;1.75;;;;;;;;;;5047172;28;20485;-73
2024/01/19 12:18:25;;;;;;;9.80;2.35;;;;;;;;;;5040738;28;20045;-74
2024/01/19 12:22:06;;;;;;;5.07;2.70;;;;;;;;;;5042545;28;20064;-75
2024/01/19 12:25:59;;;;;;;11.07;3.40;;;;;;;;;;5040452;28;20044;-73
2024/01/19 12:29:51;;;;;;;9.70;3.33;;;;;;;;;;5051621;28;20049;-75
2024/01/19 12:33:36;;;;;;;6.50;2.92;;;;;;;;;;5047774;28;20056;-75
2024/01/19 12:37:17;;;;;;;10.40;3.70;;;;;;;;;;5050181;28;20127;-76
2024/01/19 12:40:59;;;;;;;4.93;2.10;;;;;;;;;;5050318;28;20102;-76
2024/01/19 12:44:43;;;;;;;5.47;1.60;;;;;;;;;;5052686;28;20416;-78
2024/01/19 12:48:24;;;;;;;6.90;2.30;;;;;;;;;;5054782;28;20485;-79
2024/01/19 12:52:05;;;;;;;13.90;2.35;;;;;;;;;;5045610;28;20051;-79
2024/01/19 12:55:51;;;;;;;8.18;2.55;;;;;;;;;;5052240;28;20504;-76
2024/01/19 12:59:31;;;;;;;7.88;2.10;;;;;;;;;;5053851;28;20713;-78
2024/01/19 13:03:16;;;;;;;4.63;2.00;;;;;;;;;;5039891;28;20048;-78
2024/01/19 13:06:59;;;;;;;5.43;1.80;;;;;;;;;;5055641;28;20067;-81
2024/01/19 13:10:43;;;;;;;6.88;2.58;;;;;;;;;;5055789;28;20037;-80
2024/01/19 13:14:24;;;;;;;4.55;1.85;;;;;;;;;;5055988;28;20048;-77
2024/01/19 13:18:05;;;;;;;8.15;2.05;;;;;;;;;;5055721;28;20063;-78
2024/01/19 13:21:48;;;;;;;5.05;2.03;;;;;;;;;;5063968;28;20037;-80
2024/01/19 13:25:31;;;;;;;6.00;1.73;;;;;;;;;;5068445;28;20069;-79
2024/01/19 13:29:12;;;;;;;6.28;1.75;;;;;;;;;;5065606;28;20044;-80
2024/01/19 13:32:55;;;;;;;6.88;1.70;;;;;;;;;;5052270;28;20304;-77
2024/01/19 13:36:36;;;;;;;8.00;1.50;;;;;;;;;;5058190;28;20064;-82
2024/01/19 13:40:17;;;;;;;5.90;1.45;;;;;;;;;;5050081;28;20057;-80
2024/01/19 13:43:57;;;;;;;4.65;1.60;;;;;;;;;;5049706;28;20131;-80
2024/01/19 13:47:37;;;;;;;5.75;1.60;;;;;;;;;;5053038;28;20100;-80
2024/01/19 13:51:20;;;;;;;6.82;1.67;;;;;;;;;;5057738;28;20519;-81
2024/01/19 13:55:04;;;;;;;12.77;1.70;;;;;;;;;;5047222;28;20049;-76
2024/01/19 13:58:44;;;;;;;7.22;1.58;;;;;;;;;;5058871;28;20492;-77
2024/01/19 14:02:25;;;;;;;8.13;1.40;;;;;;;;;;5049678;28;20068;-77
2024/01/19 14:06:05;;;;;;;7.38;1.63;;;;;;;;;;5053386;28;20045;-79
2024/01/19 14:09:45;;;;;;;5.18;1.23;;;;;;;;;;5045582;28;20409;-79
2024/01/19 14:13:26;;;;;;;6.53;1.52;;;;;;;;;;5056760;28;20041;-79
2024/01/19 14:17:06;;;;;;;9.40;1.90;;;;;;;;;;5065315;28;20055;-77
2024/01/19 14:20:46;;;;;;;8.23;2.60;;;;;;;;;;5060842;28;20067;-79
2024/01/19 14:24:30;;;;;;;9.73;1.80;;;;;;;;;;5064824;28;20041;-80
2024/01/19 14:28:07;;;;;;;7.65;1.42;;;;;;;;;;5066802;28;20128;-81
2024/01/19 14:31:48;;;;;;;12.70;2.13;;;;;;;;;;5062868;28;20064;-81
2024/01/19 14:35:30;;;;;;;6.03;2.65;;;;;;;;;;5068513;28;20506;-81
2024/01/19 14:39:12;;;;;;;11.52;1.42;;;;;;;;;;5063580;28;20056;-80
2024/01/19 14:42:54;;;;;;;7.40;1.73;;;;;;;;;;5067702;28;20065;-80
2024/01/19 14:46:35;;;;;;;8.50;1.88;;;;;;;;;;5066643;28;20122;-79
2024/01/19 14:50:18;;;;;;;4.55;1.17;;;;;;;;;;5058581;28;20087;-78
2024/01/19 14:54:01;;;;;;;8.80;2.22;;;;;;;;;;5058782;28;20052;-78
2024/01/19 14:57:41;;;;;;;5.68;1.73;;;;;;;;;;5055983;28;20053;-78
2024/01/19 15:01:24;;;;;;;7.40;1.42;;;;;;;;;;5069575;28;20048;-78
2024/01/19 15:05:05;;;;;;;8.18;1.40;;;;;;;;;;5061000;28;20091;-80
2024/01/19 15:08:46;;;;;;;7.53;1.58;;;;;;;;;;5048393;28;20472;-78
2024/01/19 15:12:27;;;;;;;6.28;1.10;;;;;;;;;;5051783;28;20127;-79
2024/01/19 15:16:08;;;;;;;6.30;1.27;;;;;;;;;;5051452;28;20243;-78
2024/01/19 15:19:52;;;;;;;7.05;1.30;;;;;;;;;;5066537;28;20043;-78
2024/01/19 15:23:31;;;;;;;6.95;1.20;;;;;;;;;;5054165;28;20053;-74
2024/01/19 15:27:11;;;;;;;9.23;1.23;;;;;;;;;;5046857;28;20294;-75
2024/01/19 15:30:53;;;;;;;6.45;1.30;;;;;;;;;;5048490;28;20052;-73
2024/01/19 15:34:33;;;;;;;3.47;1.40;;;;;;;;;;5047881;28;20045;-72
2024/01/19 15:38:13;;;;;;;3.22;1.58;;;;;;;;;;5047123;28;20131;-74
2024/01/19 15:41:53;;;;;;;2.50;1.70;;;;;;;;;;5038977;28;20142;-73
2024/01/19 15:45:34;;;;;;;5.22;2.05;;;;;;;;;;5035484;28;20439;-72
2024/01/19 15:49:14;;;;;;;3.70;2.00;;;;;;;;;;5036264;28;20041;-71
2024/01/19 15:52:57;;;;;;;2.47;2.10;;;;;;;;;;5037416;28;20519;-70
2024/01/19 15:56:41;;;;;;;4.78;2.20;;;;;;;;;;5025637;28;20726;-70
2024/01/19 16:00:25;;;;;;;3.95;2.60;;;;;;;;;;5029672;28;20084;-71
2024/01/19 16:04:05;;;;;;;3.60;2.60;;;;;;;;;;5033928;28;20056;-74
2024/01/19 16:07:47;;;;;;;4.53;2.88;;;;;;;;;;5019649;28;21001;-77
2024/01/19 16:11:30;;;;;;;11.38;2.97;;;;;;;;;;5032431;28;20064;-73
2024/01/19 16:15:10;;;;;;;3.25;2.10;;;;;;;;;;5033420;28;20084;-72
2024/01/19 16:18:53;;;;;;;6.30;2.40;;;;;;;;;;5019578;28;20041;-74
2024/01/19 16:22:35;;;;;;;5.07;3.33;;;;;;;;;;5033307;28;20377;-75
2024/01/19 16:26:15;;;;;;;4.70;3.85;;;;;;;;;;5031457;28;20049;-74
2024/01/19 16:29:56;;;;;;;8.43;4.25;;;;;;;;;;5034544;28;20463;-73
2024/01/19 16:33:37;;;;;;;5.85;5.25;;;;;;;;;;5036005;28;20045;-76
2024/01/19 16:37:18;;;;;;;7.50;5.30;;;;;;;;;;5035339;28;20048;-76
2024/01/19 16:40:59;;;;;;;7.60;4.60;;;;;;;;;;5033702;28;20504;-70
2024/01/19 16:44:39;;;;;;;6.10;4.15;;;;;;;;;;5035652;28;20049;-73
2024/01/19 16:48:20;;;;;;;8.18;2.30;;;;;;;;;;5035370;28;20401;-72
2024/01/19 16:52:01;;;;;;;4.68;2.10;;;;;;;;;;5034793;28;20045;-72
2024/01/19 16:55:43;;;;;;;2.45;1.67;;;;;;;;;;5032265;28;20481;-73
2024/01/19 16:59:23;;;;;;;2.00;1.20;;;;;;;;;;5033682;28;20049;-72
2024/01/19 17:03:04;;;;;;;2.38;1.10;;;;;;;;;;5036260;28;20052;-74
2024/01/19 17:06:44;;;;;;;3.80;1.10;;;;;;;;;;5032144;28;20053;-71
2024/01/19 17:10:24;;;;;;;1.77;1.20;;;;;;;;;;5029428;28;20041;-73
2024/01/19 17:14:06;;;;;;;1.48;1.00;;;;;;;;;;5028242;28;20061;-71
2024/01/19 17:17:46;;;;;;;3.03;1.20;;;;;;;;;;5025143;28;20630;-72
2024/01/19 17:21:26;;;;;;;2.45;1.00;;;;;;;;;;5036722;28;20492;-79
2024/01/19 17:25:09;;;;;;;3.92;0.90;;;;;;;;;;5038875;28;20060;-81
2024/01/19 17:28:49;;;;;;;2.28;0.90;;;;;;;;;;5040979;28;20754;-80
2024/01/19 17:32:31;;;;;;;0.98;0.88;;;;;;;;;;5041773;28;20733;-79
2024/01/19 17:36:11;;;;;;;2.92;1.40;;;;;;;;;;5045512;28;20041;-78
2024/01/19 17:39:51;;;;;;;1.08;0.98;;;;;;;;;;5044760;28;20084;-77
2024/01/19 17:43:32;;;;;;;1.80;0.93;;;;;;;;;;5031992;28;20127;-77
2024/01/19 17:47:12;;;;;;;2.10;1.02;;;;;;;;;;5027510;28;20052;-72
2024/01/19 17:50:54;;;;;;;2.40;0.90;;;;;;;;;;5024823;28;20052;-76
2024/01/19 17:54:34;;;;;;;2.63;1.00;;;;;;;;;;5032123;28;20246;-75
2024/01/19 17:58:21;;;;;;;1.73;1.10;;;;;;;;;;5030661;28;20056;-76
2024/01/19 18:01:59;;;;;;;1.20;0.80;;;;;;;;;;5033129;28;20056;-78
2024/01/19 18:05:40;;;;;;;1.67;0.98;;;;;;;;;;5031022;28;20049;-75
2024/01/19 18:09:22;;;;;;;2.42;0.88;;;;;;;;;;5032594;28;20450;-73
2024/01/19 18:13:02;;;;;;;2.40;1.00;;;;;;;;;;5031349;28;20057;-74
2024/01/19 18:16:43;;;;;;;2.88;0.90;;;;;;;;;;5034082;28;20617;-80
2024/01/19 18:20:27;;;;;;;2.72;1.00;;;;;;;;;;5028203;28;20156;-79
2024/01/19 18:24:08;;;;;;;2.08;1.00;;;;;;;;;;5049705;28;20059;-78
2024/01/19 18:27:48;;;;;;;1.00;0.70;;;;;;;;;;5046391;28;20501;-81
2024/01/19 18:31:30;;;;;;;1.23;0.80;;;;;;;;;;5044923;28;20052;-78
2024/01/19 18:35:10;;;;;;;1.90;0.80;;;;;;;;;;5054916;28;20049;-78
2024/01/19 18:38:52;;;;;;;0.88;0.73;;;;;;;;;;5056446;28;20052;-78
2024/01/19 18:42:32;;;;;;;3.15;1.20;;;;;;;;;;5051569;28;20063;-77
2024/01/19 18:46:14;;;;;;;1.63;0.80;;;;;;;;;;5061175;28;20040;-78
2024/01/19 18:49:54;;;;;;;3.33;1.00;;;;;;;;;;5066502;28;20190;-78
2024/01/19 18:53:36;;;;;;;2.55;1.10;;;;;;;;;;5047528;28;20116;-73
2024/01/19 18:57:18;;;;;;;5.72;1.10;;;;;;;;;;5048703;28;20508;-73
2024/01/19 19:01:00;;;;;;;3.45;1.00;;;;;;;;;;5035854;28;20234;-71
2024/01/19 19:04:40;;;;;;;4.57;1.10;;;;;;;;;;5044105;28;20039;-72
2024/01/19 19:08:26;;;;;;;2.88;1.10;;;;;;;;;;5032414;28;20071;-72
2024/01/19 19:12:07;;;;;;;1.20;0.75;;;;;;;;;;5052254;28;20041;-69
2024/01/19 19:15:48;;;;;;;1.67;1.10;;;;;;;;;;5043635;28;20051;-71
2024/01/19 19:19:29;;;;;;;3.05;1.10;;;;;;;;;;5038895;28;20040;-70
2024/01/19 19:23:09;;;;;;;3.45;1.50;;;;;;;;;;5044791;28;20489;-69
2024/01/19 19:26:49;;;;;;;1.52;0.90;;;;;;;;;;5026957;28;20045;-70
2024/01/19 19:30:33;;;;;;;2.90;1.10;;;;;;;;;;5048679;28;20037;-74
2024/01/19 19:34:16;;;;;;;2.95;1.48;;;;;;;;;;5022239;28;20526;-70
2024/01/19 19:37:57;;;;;;;4.13;1.48;;;;;;;;;;5047435;28;20045;-67
2024/01/19 19:41:37;;;;;;;3.00;1.50;;;;;;;;;;5021082;28;20582;-71
2024/01/19 19:45:17;;;;;;;2.15;1.20;;;;;;;;;;5048453;28;20062;-68
2024/01/19 19:49:01;;;;;;;2.42;1.20;;;;;;;;;;5030231;28;20246;-72
2024/01/19 19:52:43;;;;;;;3.35;1.40;;;;;;;;;;5041072;28;20400;-68
2024/01/19 19:56:23;;;;;;;2.97;1.38;;;;;;;;;;5031623;28;20045;-68
2024/01/19 20:00:04;;;;;;;2.05;1.35;;;;;;;;;;5028462;28;20453;-68
2024/01/19 20:03:45;;;;;;;1.33;1.10;;;;;;;;;;5043092;28;20091;-68
2024/01/19 20:07:26;;;;;;;2.30;1.23;;;;;;;;;;5047494;28;20045;-69
2024/01/19 20:11:07;;;;;;;2.97;1.52;;;;;;;;;;5040199;28;20053;-69
2024/01/19 20:14:47;;;;;;;4.47;1.88;;;;;;;;;;5036862;28;20064;-70
2024/01/19 20:18:29;;;;;;;2.03;1.10;;;;;;;;;;5041748;28;20083;-68
2024/01/19 20:22:07;;;;;;;3.05;1.80;;;;;;;;;;5044118;28;20520;-71
2024/01/19 20:25:52;;;;;;;4.85;1.00;;;;;;;;;;5040308;28;20087;-72
2024/01/19 20:29:33;;;;;;;1.10;0.93;;;;;;;;;;5043730;28;20457;-67
2024/01/19 20:33:13;;;;;;;1.65;0.90;;;;;;;;;;5035763;28;20091;-71
2024/01/19 20:36:53;;;;;;;1.38;0.80;;;;;;;;;;5031720;28;20582;-69
2024/01/19 20:40:34;;;;;;;2.08;1.10;;;;;;;;;;5033399;28;20566;-77
2024/01/19 20:44:19;;;;;;;1.58;1.05;;;;;;;;;;5041533;28;20045;-75
2024/01/19 20:47:55;;;;;;;1.13;0.82;;;;;;;;;;5046976;28;20068;-78
2024/01/19 20:51:37;;;;;;;1.17;0.90;;;;;;;;;;5044448;28;20336;-73
2024/01/19 20:55:17;;;;;;;1.95;1.00;;;;;;;;;;5044418;28;20053;-78
2024/01/19 20:58:59;;;;;;;1.50;0.80;;;;;;;;;;5033797;28;20056;-73
2024/01/19 21:02:39;;;;;;;7.30;1.15;;;;;;;;;;5037032;28;20107;-71
2024/01/19 21:06:20;;;;;;;1.20;0.98;;;;;;;;;;5051490;28;20047;-75
2024/01/19 21:10:01;;;;;;;1.65;1.25;;;;;;;;;;5051094;28;20048;-74
2024/01/19 21:13:43;;;;;;;4.38;1.40;;;;;;;;;;5050056;28;20512;-77
2024/01/19 21:17:24;;;;;;;3.08;1.50;;;;;;;;;;5054301;28;20353;-75
2024/01/19 21:21:05;;;;;;;1.63;1.10;;;;;;;;;;5047747;28;20084;-76
2024/01/19 21:24:45;;;;;;;2.17;1.25;;;;;;;;;;5050562;28;20426;-78
2024/01/19 21:28:26;;;;;;;5.00;1.92;;;;;;;;;;5049675;28;20045;-74
2024/01/19 21:32:06;;;;;;;1.55;1.10;;;;;;;;;;5051702;28;20568;-71
2024/01/19 21:35:46;;;;;;;1.92;1.10;;;;;;;;;;5059793;28;20090;-79
2024/01/19 21:39:27;;;;;;;1.52;1.00;;;;;;;;;;5069267;28;20043;-79
2024/01/19 21:43:07;;;;;;;2.15;1.10;;;;;;;;;;5050734;28;20044;-74
2024/01/19 21:46:49;;;;;;;1.92;0.90;;;;;;;;;;5047147;28;20051;-74
2024/01/19 21:50:31;;;;;;;0.82;0.73;;;;;;;;;;5049351;28;20040;-71
2024/01/19 21:54:11;;;;;;;1.20;1.08;;;;;;;;;;5056125;28;20049;-79
2024/01/19 21:57:52;;;;;;;1.35;1.13;;;;;;;;;;5056143;28;20075;-76
2024/01/19 22:01:34;;;;;;;1.95;1.05;;;;;;;;;;5050862;28;20044;-75
2024/01/19 22:05:15;;;;;;;3.25;0.90;;;;;;;;;;5041968;28;20090;-75